Time;durP1;ratioP1;P1;durP2;ratioP2;P2;SDS_P1;SDS_P2;PMS_P1;PMS_P2;Temp;Humidity;BMP_temperature;BMP_pressure;BME280_temperature;BME280_humidity;BME280_pressure;Samples;Min_cycle;Max_cycle;Signal;HPM_P1;HPM_P2
2022/05/09 00:02:09;;;;;;;0.30;0.30;;;12.20;99.10;;;;;;5073220;28;20938;-73
2022/05/09 00:04:35;;;;;;;0.30;0.30;;;12.10;99.20;;;;;;5073371;28;20166;-73
2022/05/09 00:07:01;;;;;;;0.30;0.30;;;12.00;99.60;;;;;;5073455;28;20443;-71
2022/05/09 00:09:26;;;;;;;0.30;0.30;;;12.10;99.50;;;;;;5073476;28;20165;-72
2022/05/09 00:11:52;;;;;;;0.30;0.30;;;12.00;99.40;;;;;;5073063;28;20202;-71
2022/05/09 00:14:18;;;;;;;0.30;0.30;;;12.00;99.20;;;;;;5073504;28;20232;-72
2022/05/09 00:16:44;;;;;;;0.30;0.30;;;12.00;99.80;;;;;;5073456;28;20672;-73
2022/05/09 00:19:13;;;;;;;0.40;0.40;;;12.10;99.50;;;;;;5073221;28;20802;-73
2022/05/09 00:21:40;;;;;;;0.30;0.30;;;12.10;99.50;;;;;;5072964;28;20209;-71
2022/05/09 00:24:09;;;;;;;0.30;0.30;;;12.10;99.40;;;;;;5072953;28;20717;-72
2022/05/09 00:26:35;;;;;;;0.30;0.30;;;12.10;99.40;;;;;;5073252;28;20443;-71
2022/05/09 00:29:03;;;;;;;0.30;0.30;;;12.10;99.70;;;;;;5073125;28;20176;-73
2022/05/09 00:31:29;;;;;;;0.30;0.30;;;12.00;99.60;;;;;;5075837;28;20400;-72
2022/05/09 00:33:55;;;;;;;0.30;0.30;;;12.10;99.60;;;;;;5077018;28;20180;-73
2022/05/09 00:36:22;;;;;;;0.85;0.85;;;12.20;99.50;;;;;;5076984;28;20173;-71
2022/05/09 00:38:49;;;;;;;0.80;0.80;;;12.20;99.40;;;;;;5077016;28;20205;-71
2022/05/09 00:44:09;;;;;;;0.30;0.30;;;12.30;99.50;;;;;;5076943;28;20813;-73
2022/05/09 00:46:37;;;;;;;0.30;0.30;;;12.30;99.70;;;;;;5076761;28;20193;-73
2022/05/09 00:49:38;;;;;;;0.30;0.30;;;12.20;99.90;;;;;;5075549;28;20282;-72
2022/05/09 00:52:09;;;;;;;0.30;0.30;;;12.20;99.90;;;;;;5076359;28;20547;-73
2022/05/09 00:54:54;;;;;;;0.30;0.30;;;12.20;99.90;;;;;;5076488;28;20912;-71
2022/05/09 00:57:27;;;;;;;0.30;0.30;;;12.30;99.90;;;;;;5076701;28;20396;-73
2022/05/09 00:59:58;;;;;;;0.33;0.33;;;12.20;99.90;;;;;;5076472;28;20794;-71
2022/05/09 01:02:25;;;;;;;0.30;0.30;;;12.30;99.90;;;;;;5076214;28;20426;-72
2022/05/09 01:04:57;;;;;;;0.83;0.83;;;12.30;99.90;;;;;;5076416;28;20410;-73
2022/05/09 01:07:24;;;;;;;0.30;0.30;;;12.40;99.90;;;;;;5076465;28;20443;-73
2022/05/09 01:09:50;;;;;;;0.30;0.30;;;12.40;99.90;;;;;;5076432;28;20567;-73
2022/05/09 01:12:21;;;;;;;0.30;0.30;;;12.40;99.90;;;;;;5075962;28;20419;-72
2022/05/09 01:14:48;;;;;;;0.30;0.30;;;12.30;99.90;;;;;;5076256;28;20934;-72
2022/05/09 01:17:15;;;;;;;0.30;0.30;;;12.30;99.90;;;;;;5076178;28;20412;-70
2022/05/09 01:19:43;;;;;;;0.30;0.30;;;12.20;99.90;;;;;;5076096;28;20406;-73
2022/05/09 01:22:21;;;;;;;0.30;0.30;;;12.30;99.90;;;;;;5075839;28;20557;-71
2022/05/09 01:24:46;;;;;;;0.30;0.30;;;12.30;99.90;;;;;;5076020;28;20177;-73
2022/05/09 01:27:12;;;;;;;0.30;0.30;;;12.20;99.90;;;;;;5075917;28;20770;-73
2022/05/09 01:29:47;;;;;;;0.30;0.30;;;12.20;99.90;;;;;;5076126;28;20257;-73
2022/05/09 01:32:16;;;;;;;0.30;0.30;;;12.20;99.90;;;;;;5075817;28;20509;-72
2022/05/09 01:34:46;;;;;;;0.50;0.50;;;12.30;99.90;;;;;;5075846;28;20404;-73
2022/05/09 01:37:13;;;;;;;0.30;0.30;;;12.30;99.90;;;;;;5075957;28;20773;-73
2022/05/09 01:39:39;;;;;;;0.30;0.30;;;12.30;99.90;;;;;;5075532;28;20800;-73
2022/05/09 01:42:08;;;;;;;0.40;0.40;;;12.30;99.90;;;;;;5074443;28;20861;-71
2022/05/09 01:44:34;;;;;;;0.30;0.30;;;12.20;99.90;;;;;;5075747;28;20454;-73
2022/05/09 01:49:44;;;;;;;0.45;0.45;;;12.00;99.90;;;;;;5076088;28;20383;-74
2022/05/09 01:52:14;;;;;;;0.30;0.30;;;12.00;99.90;;;;;;5075264;28;20203;-73
2022/05/09 01:54:41;;;;;;;0.30;0.30;;;12.10;99.90;;;;;;5075490;28;20185;-72
2022/05/09 01:57:07;;;;;;;0.30;0.30;;;12.00;99.90;;;;;;5075564;28;20435;-71
2022/05/09 01:59:33;;;;;;;0.30;0.30;;;12.00;99.90;;;;;;5075532;28;20177;-72
2022/05/09 02:02:03;;;;;;;0.93;0.70;;;12.00;99.90;;;;;;5075060;28;20196;-70
2022/05/09 02:04:29;;;;;;;0.30;0.30;;;12.00;99.90;;;;;;5075328;28;20180;-71
2022/05/09 02:06:57;;;;;;;0.30;0.30;;;11.90;99.90;;;;;;5075157;28;20550;-72
2022/05/09 02:09:23;;;;;;;0.47;0.47;;;11.90;99.90;;;;;;5075226;28;20396;-72
2022/05/09 02:11:49;;;;;;;0.30;0.30;;;11.90;99.90;;;;;;5074870;28;20423;-72
2022/05/09 02:14:15;;;;;;;0.30;0.30;;;11.90;99.90;;;;;;5073828;28;20412;-71
2022/05/09 02:16:40;;;;;;;0.47;0.47;;;12.00;99.90;;;;;;5075138;28;20920;-71
2022/05/09 02:19:06;;;;;;;0.60;0.60;;;12.00;99.90;;;;;;5074919;28;20400;-72
2022/05/09 02:21:33;;;;;;;0.30;0.30;;;12.00;99.90;;;;;;5073447;28;20264;-71
2022/05/09 02:23:59;;;;;;;0.30;0.30;;;12.10;99.90;;;;;;5074847;28;20427;-71
2022/05/09 02:26:25;;;;;;;0.30;0.30;;;11.90;99.90;;;;;;5074961;28;20447;-73
2022/05/09 02:28:51;;;;;;;0.30;0.30;;;11.90;99.90;;;;;;5073648;28;20449;-71
2022/05/09 02:31:20;;;;;;;0.30;0.30;;;11.90;99.90;;;;;;5073355;28;20159;-72
2022/05/09 02:33:46;;;;;;;0.30;0.30;;;11.90;99.90;;;;;;5072338;28;20400;-70
2022/05/09 02:36:12;;;;;;;0.30;0.30;;;12.00;99.90;;;;;;5074887;28;20461;-71
2022/05/09 02:38:38;;;;;;;0.30;0.30;;;12.00;99.90;;;;;;5073341;28;20399;-69
2022/05/09 02:41:04;;;;;;;0.30;0.30;;;12.00;99.90;;;;;;5073261;28;20176;-71
2022/05/09 02:43:31;;;;;;;0.63;0.63;;;11.90;99.90;;;;;;5074893;28;20528;-74
2022/05/09 02:46:03;;;;;;;0.30;0.30;;;12.00;99.90;;;;;;5074527;28;20447;-69
2022/05/09 02:48:30;;;;;;;0.30;0.30;;;12.00;99.90;;;;;;5074615;28;20407;-71
2022/05/09 02:50:55;;;;;;;0.30;0.30;;;12.00;99.90;;;;;;5074208;28;20449;-73
2022/05/09 02:53:21;;;;;;;0.30;0.30;;;12.10;99.90;;;;;;5074432;28;20511;-69
2022/05/09 02:55:47;;;;;;;0.30;0.30;;;12.10;99.90;;;;;;5074789;28;20173;-69
2022/05/09 02:58:14;;;;;;;0.40;0.40;;;12.20;99.90;;;;;;5074814;28;20181;-72
2022/05/09 03:00:40;;;;;;;0.30;0.30;;;12.20;99.90;;;;;;5072042;28;20256;-73
2022/05/09 03:05:50;;;;;;;0.30;0.30;;;12.20;99.90;;;;;;5074583;28;20238;-71
2022/05/09 03:08:18;;;;;;;0.50;0.50;;;12.40;99.90;;;;;;5073936;28;20414;-73
2022/05/09 03:10:44;;;;;;;0.30;0.30;;;12.40;99.90;;;;;;5074242;28;20434;-72
2022/05/09 03:13:12;;;;;;;0.30;0.30;;;12.50;99.90;;;;;;5074364;28;20777;-70
2022/05/09 03:15:41;;;;;;;0.30;0.30;;;12.40;99.90;;;;;;5074110;28;20416;-71
2022/05/09 03:18:07;;;;;;;0.40;0.40;;;12.40;99.90;;;;;;5074204;28;20399;-73
2022/05/09 03:20:33;;;;;;;0.30;0.30;;;12.30;99.90;;;;;;5073195;28;20406;-72
2022/05/09 03:22:59;;;;;;;0.30;0.30;;;12.30;99.90;;;;;;5073622;28;20941;-73
2022/05/09 03:25:26;;;;;;;0.40;0.40;;;12.30;99.90;;;;;;5074370;28;20507;-71
2022/05/09 03:27:52;;;;;;;0.30;0.30;;;12.40;99.90;;;;;;5071589;28;20482;-71
2022/05/09 03:30:19;;;;;;;1.20;1.17;;;12.30;99.90;;;;;;5072621;28;20495;-70
2022/05/09 03:32:45;;;;;;;0.30;0.30;;;12.30;99.90;;;;;;5073577;28;20693;-71
2022/05/09 03:35:11;;;;;;;0.40;0.40;;;12.20;99.90;;;;;;5074138;28;20557;-73
2022/05/09 03:37:37;;;;;;;0.50;0.50;;;12.30;99.90;;;;;;5074205;28;20399;-71
2022/05/09 03:40:05;;;;;;;0.30;0.30;;;12.30;99.90;;;;;;5073560;28;20771;-74
2022/05/09 03:42:31;;;;;;;0.40;0.40;;;12.30;99.90;;;;;;5073692;28;20440;-74
2022/05/09 03:44:56;;;;;;;0.40;0.40;;;12.20;99.90;;;;;;5072883;28;20411;-71
2022/05/09 03:47:22;;;;;;;0.30;0.30;;;12.20;99.90;;;;;;5071744;28;20463;-73
2022/05/09 03:49:48;;;;;;;0.30;0.30;;;12.20;99.90;;;;;;5073232;28;20174;-74
2022/05/09 03:52:14;;;;;;;0.30;0.30;;;12.10;99.90;;;;;;5071169;28;20443;-73
2022/05/09 03:54:39;;;;;;;0.40;0.40;;;12.10;99.90;;;;;;5071848;28;20481;-74
2022/05/09 03:57:05;;;;;;;0.30;0.30;;;12.20;99.90;;;;;;5073613;28;20182;-73
2022/05/09 03:59:32;;;;;;;0.40;0.40;;;12.30;99.90;;;;;;5073409;28;20174;-72
2022/05/09 04:01:57;;;;;;;0.30;0.30;;;12.40;99.90;;;;;;5073180;28;20211;-73
2022/05/09 04:04:24;;;;;;;0.30;0.30;;;12.30;99.90;;;;;;5073303;28;20772;-74
2022/05/09 04:06:52;;;;;;;0.30;0.30;;;12.40;99.90;;;;;;5077015;28;20205;-72
2022/05/09 04:09:20;;;;;;;1.43;1.43;;;12.30;99.90;;;;;;5077339;28;20464;-74
2022/05/09 04:11:48;;;;;;;0.30;0.30;;;12.40;99.90;;;;;;5077160;28;20425;-74
2022/05/09 04:14:14;;;;;;;0.30;0.30;;;12.50;99.90;;;;;;5077269;28;20754;-73
2022/05/09 04:16:49;;;;;;;0.40;0.40;;;12.50;99.90;;;;;;5077316;28;20414;-71
2022/05/09 04:19:16;;;;;;;0.70;0.70;;;12.30;99.90;;;;;;5077495;28;20497;-72
2022/05/09 04:21:42;;;;;;;0.30;0.30;;;12.40;99.90;;;;;;5077033;28;20431;-73
2022/05/09 04:24:08;;;;;;;0.30;0.30;;;12.30;99.90;;;;;;5077102;28;20874;-72
2022/05/09 04:26:34;;;;;;;0.30;0.30;;;12.30;99.90;;;;;;5077360;28;20494;-74
2022/05/09 04:29:00;;;;;;;0.30;0.30;;;12.30;99.90;;;;;;5077244;28;20174;-71
2022/05/09 04:31:28;;;;;;;0.30;0.30;;;12.40;99.90;;;;;;5076565;28;20490;-71
2022/05/09 04:33:55;;;;;;;0.30;0.30;;;12.60;99.90;;;;;;5076904;28;20418;-72
2022/05/09 04:36:22;;;;;;;1.00;1.00;;;12.70;99.90;;;;;;5077585;28;20499;-73
2022/05/09 04:38:50;;;;;;;0.30;0.30;;;12.70;99.90;;;;;;5076919;28;20418;-72
2022/05/09 04:41:18;;;;;;;0.40;0.40;;;12.70;99.90;;;;;;5076767;28;20626;-72
2022/05/09 04:43:44;;;;;;;0.30;0.30;;;12.70;99.90;;;;;;5076757;28;20431;-74
2022/05/09 04:46:10;;;;;;;0.63;0.63;;;12.50;99.90;;;;;;5076573;28;20454;-73
2022/05/09 04:48:35;;;;;;;0.30;0.30;;;12.50;99.90;;;;;;5076707;28;20175;-73
2022/05/09 04:51:01;;;;;;;0.83;0.80;;;12.60;99.90;;;;;;5076595;28;20244;-75
2022/05/09 04:53:27;;;;;;;0.37;0.37;;;12.50;99.90;;;;;;5074196;28;20866;-71
2022/05/09 04:55:56;;;;;;;0.30;0.30;;;12.50;99.90;;;;;;5076364;28;20234;-72
2022/05/09 04:58:22;;;;;;;0.30;0.30;;;12.70;99.90;;;;;;5076465;28;20177;-74
2022/05/09 05:00:48;;;;;;;0.30;0.30;;;12.90;99.90;;;;;;5076181;28;20439;-71
2022/05/09 05:03:15;;;;;;;0.30;0.30;;;12.90;99.90;;;;;;5076150;28;20431;-71
2022/05/09 05:05:41;;;;;;;0.40;0.40;;;13.10;99.90;;;;;;5076168;28;20973;-72
2022/05/09 05:08:07;;;;;;;0.60;0.60;;;13.20;99.90;;;;;;5076344;28;20494;-73
2022/05/09 05:10:34;;;;;;;1.33;1.23;;;13.30;99.90;;;;;;5076141;28;20408;-74
2022/05/09 05:13:02;;;;;;;3.33;1.43;;;13.40;99.90;;;;;;5074947;28;20436;-72
2022/05/09 05:15:29;;;;;;;0.60;0.60;;;13.30;99.90;;;;;;5076137;28;20774;-74
2022/05/09 05:17:55;;;;;;;0.30;0.30;;;13.50;99.90;;;;;;5075974;28;20499;-72
2022/05/09 05:20:22;;;;;;;0.30;0.30;;;13.80;99.90;;;;;;5074651;28;20549;-74
2022/05/09 05:22:48;;;;;;;0.60;0.57;;;14.20;99.20;;;;;;5075813;28;20452;-75
2022/05/09 05:25:20;;;;;;;0.30;0.30;;;14.40;98.40;;;;;;5076006;28;20420;-72
2022/05/09 05:27:47;;;;;;;0.40;0.40;;;14.80;97.80;;;;;;5075873;28;20417;-73
2022/05/09 05:30:14;;;;;;;0.30;0.30;;;14.90;97.90;;;;;;5075786;28;20413;-73
2022/05/09 05:32:41;;;;;;;0.73;0.73;;;14.80;96.80;;;;;;5076125;28;20574;-72
2022/05/09 05:35:11;;;;;;;0.30;0.30;;;15.00;97.30;;;;;;5076008;28;20411;-74
2022/05/09 05:37:36;;;;;;;0.40;0.40;;;15.20;96.50;;;;;;5075840;28;20942;-72
2022/05/09 05:40:02;;;;;;;0.40;0.40;;;15.40;96.40;;;;;;5075707;28;20494;-72
2022/05/09 05:42:29;;;;;;;0.33;0.33;;;15.50;95.80;;;;;;5075754;28;20559;-72
2022/05/09 05:44:55;;;;;;;0.40;0.40;;;15.30;95.90;;;;;;5075589;28;20174;-72
2022/05/09 05:47:22;;;;;;;0.30;0.30;;;15.20;95.90;;;;;;5075505;28;20509;-73
2022/05/09 05:49:49;;;;;;;0.30;0.30;;;15.10;95.80;;;;;;5075547;28;20410;-72
2022/05/09 05:52:15;;;;;;;0.30;0.30;;;15.10;96.10;;;;;;5075242;28;20850;-73
2022/05/09 05:54:44;;;;;;;0.30;0.30;;;15.10;96.50;;;;;;5075587;28;20399;-72
2022/05/09 05:57:24;;;;;;;0.40;0.40;;;15.40;96.40;;;;;;5075590;28;20418;-75
2022/05/09 05:59:55;;;;;;;1.60;1.07;;;16.30;95.00;;;;;;5075641;28;20408;-75
2022/05/09 06:02:22;;;;;;;0.30;0.30;;;17.10;93.20;;;;;;5075098;28;20942;-74
2022/05/09 06:04:48;;;;;;;0.30;0.30;;;17.60;92.40;;;;;;5075358;28;20450;-75
2022/05/09 06:07:13;;;;;;;0.30;0.30;;;17.70;92.20;;;;;;5075151;28;20485;-75
2022/05/09 06:09:59;;;;;;;0.40;0.40;;;17.80;92.20;;;;;;5075347;28;20212;-75
2022/05/09 06:12:28;;;;;;;0.30;0.30;;;18.10;91.60;;;;;;5074892;28;20442;-74
2022/05/09 06:17:38;;;;;;;1.00;0.90;;;18.40;90.80;;;;;;5075277;28;20449;-73
2022/05/09 06:20:06;;;;;;;0.40;0.40;;;18.20;90.40;;;;;;5074906;28;20444;-74
2022/05/09 06:22:32;;;;;;;0.40;0.40;;;17.60;90.50;;;;;;5073490;28;20505;-75
2022/05/09 06:24:59;;;;;;;0.70;0.70;;;17.80;91.00;;;;;;5072469;28;20561;-73
2022/05/09 06:27:25;;;;;;;0.30;0.30;;;17.60;90.80;;;;;;5074809;28;20546;-73
2022/05/09 06:29:51;;;;;;;0.97;0.87;;;17.40;91.30;;;;;;5074911;28;20407;-74
2022/05/09 06:32:19;;;;;;;0.30;0.30;;;17.40;91.60;;;;;;5074584;28;20432;-73
2022/05/09 06:34:45;;;;;;;0.50;0.40;;;17.00;92.10;;;;;;5075306;28;20293;-74
2022/05/09 06:37:11;;;;;;;0.40;0.40;;;17.20;91.90;;;;;;5075358;28;20412;-73
2022/05/09 06:39:36;;;;;;;0.40;0.40;;;17.00;91.90;;;;;;5073281;28;20422;-76
2022/05/09 06:42:04;;;;;;;0.87;0.87;;;16.60;92.90;;;;;;5073487;28;20666;-72
2022/05/09 06:44:29;;;;;;;0.40;0.40;;;16.30;93.50;;;;;;5072691;28;20631;-73
2022/05/09 06:46:55;;;;;;;2.10;2.00;;;16.40;93.80;;;;;;5074368;28;20520;-72
2022/05/09 06:49:22;;;;;;;0.40;0.40;;;16.60;93.10;;;;;;5074657;28;20405;-75
2022/05/09 06:51:48;;;;;;;0.40;0.40;;;16.80;93.10;;;;;;5074132;28;20196;-74
2022/05/09 06:54:18;;;;;;;0.50;0.50;;;16.70;93.20;;;;;;5073805;28;20408;-71
2022/05/09 06:56:44;;;;;;;0.30;0.30;;;17.00;92.70;;;;;;5072250;28;20416;-71
2022/05/09 06:59:10;;;;;;;0.50;0.50;;;17.30;92.20;;;;;;5074609;28;20425;-70
2022/05/09 07:01:37;;;;;;;0.60;0.60;;;17.30;91.70;;;;;;5073283;28;20253;-74
2022/05/09 07:04:03;;;;;;;1.47;1.33;;;17.00;91.90;;;;;;5071645;28;20281;-74
2022/05/09 07:06:29;;;;;;;0.30;0.30;;;16.90;92.10;;;;;;5073940;28;20546;-74
2022/05/09 07:08:54;;;;;;;0.80;0.80;;;17.00;92.40;;;;;;5073994;28;20415;-72
2022/05/09 07:11:20;;;;;;;0.30;0.30;;;17.20;91.70;;;;;;5073722;28;20245;-71
2022/05/09 07:13:46;;;;;;;0.30;0.30;;;17.90;90.80;;;;;;5074419;28;20628;-72
2022/05/09 07:16:13;;;;;;;0.40;0.40;;;18.20;90.80;;;;;;5073996;28;20180;-73
2022/05/09 07:18:40;;;;;;;0.30;0.30;;;18.70;90.40;;;;;;5073931;28;20579;-75
2022/05/09 07:21:07;;;;;;;0.30;0.30;;;19.20;88.50;;;;;;5073593;28;20763;-74
2022/05/09 07:23:34;;;;;;;0.30;0.30;;;19.40;86.20;;;;;;5073408;28;20925;-72
2022/05/09 07:26:01;;;;;;;0.60;0.60;;;20.00;84.70;;;;;;5072130;28;20561;-74
2022/05/09 07:28:28;;;;;;;0.30;0.30;;;21.50;83.90;;;;;;5072043;28;20411;-74
2022/05/09 07:30:56;;;;;;;0.30;0.30;;;22.30;78.50;;;;;;5072588;28;20440;-74
2022/05/09 07:33:22;;;;;;;0.30;0.30;;;22.70;76.40;;;;;;5071409;28;20418;-73
2022/05/09 07:35:48;;;;;;;1.63;1.10;;;24.10;70.80;;;;;;5073167;28;20716;-74
2022/05/09 07:38:14;;;;;;;0.30;0.30;;;24.70;67.30;;;;;;5072731;28;20418;-75
2022/05/09 07:40:41;;;;;;;0.40;0.40;;;25.00;66.20;;;;;;5069840;28;20173;-75
2022/05/09 07:43:12;;;;;;;0.30;0.30;;;25.50;64.70;;;;;;5073227;28;21039;-73
2022/05/09 07:45:38;;;;;;;0.30;0.30;;;25.60;62.00;;;;;;5073116;28;20490;-75
2022/05/09 07:48:03;;;;;;;0.40;0.40;;;25.70;59.40;;;;;;5073562;28;20762;-71
2022/05/09 07:50:29;;;;;;;0.30;0.30;;;25.30;59.10;;;;;;5073206;28;20408;-74
2022/05/09 07:52:55;;;;;;;0.30;0.30;;;25.10;58.10;;;;;;5073326;28;20197;-73
2022/05/09 07:55:20;;;;;;;0.43;0.43;;;24.30;59.90;;;;;;5073602;28;20626;-73
2022/05/09 07:57:46;;;;;;;0.40;0.40;;;23.60;60.90;;;;;;5071467;28;20234;-74
2022/05/09 08:00:12;;;;;;;0.40;0.40;;;22.90;63.20;;;;;;5073324;28;20647;-73
2022/05/09 08:02:40;;;;;;;0.30;0.30;;;22.90;66.90;;;;;;5073065;28;20306;-74
2022/05/09 08:05:10;;;;;;;0.57;0.57;;;23.90;64.90;;;;;;5070592;28;20439;-74
2022/05/09 08:07:38;;;;;;;3.40;0.97;;;24.90;61.50;;;;;;5072959;28;20455;-72
2022/05/09 08:10:06;;;;;;;0.30;0.30;;;26.70;56.30;;;;;;5073127;28;20415;-72
2022/05/09 08:12:31;;;;;;;0.30;0.30;;;27.50;54.80;;;;;;5073151;28;20431;-72
2022/05/09 08:14:57;;;;;;;0.30;0.30;;;27.10;53.60;;;;;;5073075;28;20783;-72
2022/05/09 08:17:23;;;;;;;0.30;0.30;;;27.70;53.30;;;;;;5073855;28;20244;-73
2022/05/09 08:19:54;;;;;;;0.80;0.80;;;28.20;52.40;;;;;;5073312;28;20188;-74
2022/05/09 08:22:19;;;;;;;0.40;0.40;;;28.60;50.50;;;;;;5072768;28;20205;-73
2022/05/09 08:24:46;;;;;;;0.40;0.40;;;29.70;48.50;;;;;;5073035;28;20435;-72
2022/05/09 08:27:12;;;;;;;2.10;0.50;;;30.30;46.40;;;;;;5073096;28;20286;-72
2022/05/09 08:29:37;;;;;;;0.50;0.40;;;31.30;43.40;;;;;;5073175;28;20408;-73
2022/05/09 08:32:03;;;;;;;1.03;0.77;;;31.20;43.00;;;;;;5072794;28;20189;-75
2022/05/09 08:34:29;;;;;;;0.43;0.43;;;30.50;43.30;;;;;;5073015;28;20669;-74
2022/05/09 08:36:55;;;;;;;0.30;0.30;;;30.90;43.80;;;;;;5072968;28;20485;-73
2022/05/09 08:39:23;;;;;;;0.30;0.30;;;31.10;43.80;;;;;;5072993;28;20407;-74
2022/05/09 08:41:57;;;;;;;1.00;0.77;;;31.70;42.70;;;;;;5072662;28;20900;-72
2022/05/09 08:44:56;;;;;;;0.40;0.40;;;31.40;43.10;;;;;;5073111;28;20391;-74
2022/05/09 08:47:49;;;;;;;0.50;0.50;;;32.00;41.30;;;;;;5072821;28;20459;-73
2022/05/09 08:50:31;;;;;;;1.67;1.13;;;32.10;40.40;;;;;;5073248;28;20441;-75
2022/05/09 08:53:02;;;;;;;0.57;0.57;;;32.80;38.90;;;;;;5076401;28;20419;-72
2022/05/09 08:55:39;;;;;;;1.17;0.97;;;32.20;38.60;;;;;;5076575;28;20762;-75
2022/05/09 08:58:29;;;;;;;1.03;0.47;;;31.80;37.80;;;;;;5074521;28;20464;-72
2022/05/09 09:00:55;;;;;;;1.10;0.77;;;31.50;39.20;;;;;;5074170;28;20414;-74
2022/05/09 09:03:37;;;;;;;1.10;1.00;;;31.00;38.70;;;;;;5075338;28;20428;-72
2022/05/09 09:06:32;;;;;;;2.47;0.73;;;28.70;40.70;;;;;;5074852;28;20443;-72
2022/05/09 09:09:42;;;;;;;0.40;0.40;;;29.10;42.50;;;;;;5075090;28;20412;-73
2022/05/09 09:12:28;;;;;;;0.40;0.40;;;30.40;42.50;;;;;;5073834;28;20914;-73
2022/05/09 09:15:19;;;;;;;0.40;0.40;;;31.00;42.50;;;;;;5072925;28;20554;-75
2022/05/09 09:18:13;;;;;;;1.00;0.90;;;32.50;40.50;;;;;;5074126;28;20916;-73
2022/05/09 09:20:54;;;;;;;0.50;0.50;;;33.00;36.70;;;;;;5075204;28;20412;-75
2022/05/09 09:23:55;;;;;;;0.30;0.30;;;32.30;37.70;;;;;;5073114;28;20443;-75
2022/05/09 09:26:39;;;;;;;0.70;0.70;;;31.80;38.70;;;;;;5075336;28;20458;-73
2022/05/09 09:29:16;;;;;;;0.87;0.87;;;31.90;38.20;;;;;;5074954;28;20452;-73
2022/05/09 09:32:01;;;;;;;0.40;0.40;;;32.00;39.50;;;;;;5074177;28;20908;-74
2022/05/09 09:34:49;;;;;;;0.30;0.30;;;32.50;36.80;;;;;;5075902;28;20899;-73
2022/05/09 09:37:27;;;;;;;0.40;0.40;;;32.20;37.70;;;;;;5075946;28;20400;-72
2022/05/09 09:39:53;;;;;;;0.40;0.40;;;31.40;38.60;;;;;;5075812;28;20400;-74
2022/05/09 09:42:18;;;;;;;0.50;0.47;;;31.30;37.60;;;;;;5075790;28;20796;-72
2022/05/09 09:44:46;;;;;;;0.30;0.30;;;31.20;38.30;;;;;;5075688;28;20181;-72
2022/05/09 09:47:26;;;;;;;0.50;0.50;;;29.90;39.80;;;;;;5075690;28;20560;-74
2022/05/09 09:50:15;;;;;;;0.40;0.40;;;29.70;41.70;;;;;;5074617;28;20416;-74
2022/05/09 09:52:53;;;;;;;1.90;1.80;;;30.20;42.20;;;;;;5074535;28;20493;-73
2022/05/09 09:55:35;;;;;;;0.50;0.50;;;31.40;39.70;;;;;;5075999;28;20404;-74
2022/05/09 09:58:22;;;;;;;0.40;0.40;;;30.90;38.90;;;;;;5075660;28;20443;-73
2022/05/09 10:01:10;;;;;;;0.40;0.40;;;30.60;39.30;;;;;;5075065;28;20405;-74
2022/05/09 10:03:41;;;;;;;0.30;0.30;;;30.90;39.70;;;;;;5073431;28;20423;-72
2022/05/09 10:06:34;;;;;;;0.90;0.90;;;31.00;40.30;;;;;;5075089;28;20458;-74
2022/05/09 10:09:08;;;;;;;0.50;0.50;;;31.30;39.50;;;;;;5074415;28;20490;-75
2022/05/09 10:11:34;;;;;;;0.50;0.50;;;30.10;40.20;;;;;;5075027;28;20456;-73
2022/05/09 10:14:03;;;;;;;0.60;0.60;;;30.20;39.40;;;;;;5075075;28;20414;-74
2022/05/09 10:16:33;;;;;;;0.77;0.77;;;29.00;42.40;;;;;;5075103;28;20819;-73
2022/05/09 10:19:02;;;;;;;0.40;0.40;;;28.70;41.30;;;;;;5075146;28;20411;-74
2022/05/09 10:27:21;;;;;;;0.40;0.40;;;25.30;45.70;;;;;;5073373;28;20481;-72
2022/05/09 10:29:49;;;;;;;0.30;0.30;;;24.00;48.70;;;;;;5073572;28;20407;-74
2022/05/09 10:32:21;;;;;;;0.30;0.30;;;23.40;48.60;;;;;;5074111;28;20867;-72
2022/05/09 10:34:55;;;;;;;0.37;0.37;;;23.40;48.80;;;;;;5074665;28;20947;-71
2022/05/09 10:37:26;;;;;;;0.30;0.30;;;23.60;48.00;;;;;;5074695;28;20972;-73
2022/05/09 10:40:05;;;;;;;0.30;0.30;;;23.90;47.70;;;;;;5074556;28;20411;-74
2022/05/09 10:42:41;;;;;;;0.30;0.30;;;23.90;48.60;;;;;;5074469;28;20452;-72
2022/05/09 10:45:26;;;;;;;0.63;0.63;;;23.50;47.90;;;;;;5074481;28;20777;-74
2022/05/09 10:48:09;;;;;;;0.53;0.53;;;22.80;48.80;;;;;;5074377;28;20400;-73
2022/05/09 10:50:49;;;;;;;0.30;0.30;;;22.30;49.90;;;;;;5074424;28;20400;-71
2022/05/09 10:53:35;;;;;;;0.40;0.40;;;22.20;51.80;;;;;;5075055;28;20756;-72
2022/05/09 10:56:31;;;;;;;0.30;0.30;;;22.80;52.30;;;;;;5074327;28;20923;-71
2022/05/09 10:59:07;;;;;;;0.30;0.30;;;22.70;51.40;;;;;;5074367;28;20406;-72
2022/05/09 11:01:47;;;;;;;0.30;0.30;;;22.60;49.30;;;;;;5074019;28;20396;-71
2022/05/09 11:04:16;;;;;;;0.30;0.30;;;22.40;49.20;;;;;;5074302;28;20428;-73
2022/05/09 11:06:48;;;;;;;0.37;0.37;;;22.20;49.70;;;;;;5074110;28;20977;-72
2022/05/09 11:09:54;;;;;;;0.30;0.30;;;22.30;50.60;;;;;;5072904;28;20406;-74
2022/05/09 11:13:04;;;;;;;0.30;0.30;;;22.90;51.80;;;;;;5074082;28;20443;-73
2022/05/09 11:15:54;;;;;;;0.30;0.30;;;23.30;50.80;;;;;;5073849;28;20371;-73
2022/05/09 11:18:29;;;;;;;0.40;0.40;;;23.20;50.00;;;;;;5073814;28;20499;-74
2022/05/09 11:21:26;;;;;;;0.30;0.30;;;22.80;51.20;;;;;;5073666;28;20873;-72
2022/05/09 11:24:11;;;;;;;0.40;0.40;;;22.70;51.10;;;;;;5073130;28;20443;-72
2022/05/09 11:26:48;;;;;;;0.30;0.30;;;22.70;51.00;;;;;;5073800;28;20446;-72
2022/05/09 11:29:37;;;;;;;0.30;0.30;;;22.50;51.60;;;;;;5073733;28;20552;-74
2022/05/09 11:32:29;;;;;;;0.30;0.30;;;22.20;52.30;;;;;;5073676;28;20462;-72
2022/05/09 11:35:07;;;;;;;0.73;0.43;;;21.90;53.10;;;;;;5073557;28;20366;-72
2022/05/09 11:37:54;;;;;;;0.30;0.30;;;21.70;51.10;;;;;;5073866;28;20399;-71
2022/05/09 11:40:40;;;;;;;0.30;0.30;;;21.60;52.10;;;;;;5073553;28;20397;-72
2022/05/09 11:43:31;;;;;;;0.30;0.30;;;21.60;52.50;;;;;;5073499;28;20514;-74
2022/05/09 11:46:39;;;;;;;0.77;0.77;;;21.60;53.90;;;;;;5073479;28;20456;-72
2022/05/09 11:49:23;;;;;;;0.30;0.30;;;21.70;54.20;;;;;;5073748;28;20405;-73
2022/05/09 11:51:59;;;;;;;0.30;0.30;;;21.70;55.70;;;;;;5073317;28;20417;-73
2022/05/09 11:54:28;;;;;;;0.30;0.30;;;21.90;52.80;;;;;;5073511;28;20408;-73
2022/05/09 11:56:59;;;;;;;0.60;0.60;;;21.90;52.60;;;;;;5073412;28;20567;-71
2022/05/09 11:59:27;;;;;;;0.30;0.30;;;22.10;51.50;;;;;;5073608;28;20418;-74
2022/05/09 12:02:03;;;;;;;0.30;0.30;;;22.40;52.30;;;;;;5072980;28;20419;-72
2022/05/09 12:04:47;;;;;;;0.30;0.30;;;22.30;51.00;;;;;;5073282;28;20392;-74
2022/05/09 12:07:21;;;;;;;0.40;0.40;;;21.70;51.00;;;;;;5071957;28;20454;-74
2022/05/09 12:09:56;;;;;;;0.43;0.43;;;21.50;51.70;;;;;;5073424;28;20956;-73
2022/05/09 12:12:37;;;;;;;0.50;0.50;;;21.60;51.90;;;;;;5071747;28;20440;-72
2022/05/09 12:15:04;;;;;;;0.33;0.33;;;21.90;52.70;;;;;;5073617;28;20456;-74
2022/05/09 12:17:38;;;;;;;0.30;0.30;;;22.20;53.40;;;;;;5073239;28;20419;-74
2022/05/09 12:20:10;;;;;;;0.93;0.93;;;22.70;53.20;;;;;;5073135;28;20863;-74
2022/05/09 12:22:39;;;;;;;0.30;0.30;;;23.10;51.30;;;;;;5073098;28;20451;-73
2022/05/09 12:25:31;;;;;;;0.30;0.30;;;23.00;50.90;;;;;;5071579;28;20387;-72
2022/05/09 12:28:15;;;;;;;0.30;0.30;;;22.90;51.10;;;;;;5074599;28;20434;-73
2022/05/09 12:31:12;;;;;;;0.30;0.30;;;22.50;51.00;;;;;;5075912;28;20452;-71
2022/05/09 12:33:46;;;;;;;0.50;0.50;;;22.00;51.40;;;;;;5074539;28;20743;-75
2022/05/09 12:36:27;;;;;;;0.40;0.40;;;21.50;53.10;;;;;;5077400;28;20789;-73
2022/05/09 12:39:02;;;;;;;0.30;0.30;;;21.40;53.20;;;;;;5076798;28;20426;-75
2022/05/09 12:41:48;;;;;;;0.30;0.30;;;21.40;55.60;;;;;;5075142;28;20897;-74
2022/05/09 12:44:20;;;;;;;0.30;0.30;;;21.20;54.80;;;;;;5077010;28;20371;-74
2022/05/09 12:46:49;;;;;;;0.30;0.30;;;21.00;54.30;;;;;;5076921;28;20464;-68
2022/05/09 12:49:19;;;;;;;1.83;1.83;;;20.60;55.30;;;;;;5076732;28;20397;-70
2022/05/09 12:51:49;;;;;;;0.30;0.30;;;20.60;55.60;;;;;;5076429;28;20484;-73
2022/05/09 12:54:18;;;;;;;0.40;0.40;;;20.80;54.20;;;;;;5077332;28;20400;-73
2022/05/09 12:56:51;;;;;;;0.30;0.30;;;20.60;56.10;;;;;;5076712;28;20414;-70
2022/05/09 12:59:18;;;;;;;0.50;0.50;;;20.60;54.10;;;;;;5076928;28;20453;-69
2022/05/09 13:01:55;;;;;;;0.40;0.40;;;20.80;55.40;;;;;;5076636;28;20939;-73
2022/05/09 13:04:32;;;;;;;0.30;0.30;;;20.80;55.80;;;;;;5075411;28;20415;-71
2022/05/09 13:07:08;;;;;;;0.53;0.53;;;21.10;55.30;;;;;;5076665;28;20444;-72
2022/05/09 13:09:45;;;;;;;0.67;0.67;;;21.30;55.60;;;;;;5076434;28;20405;-73
2022/05/09 13:12:22;;;;;;;0.97;0.83;;;21.40;56.80;;;;;;5076446;28;20417;-73
2022/05/09 13:14:59;;;;;;;0.40;0.40;;;21.30;58.30;;;;;;5076585;28;20512;-72
2022/05/09 13:17:43;;;;;;;0.30;0.30;;;21.30;54.60;;;;;;5076474;28;20410;-71
2022/05/09 13:20:12;;;;;;;0.30;0.30;;;21.10;54.50;;;;;;5076288;28;20403;-71
2022/05/09 13:23:05;;;;;;;0.57;0.57;;;21.00;54.00;;;;;;5076357;28;20447;-75
2022/05/09 13:25:39;;;;;;;1.10;1.00;;;21.10;55.20;;;;;;5074802;28;20412;-72
2022/05/09 13:28:10;;;;;;;0.30;0.30;;;21.10;54.40;;;;;;5076606;28;20409;-74